PWSweather.com
Personal Weather Stations
Station Observations
CW4438
Little Flock, AR 72756

Little Flock, AR 72756

Lat: 36.39, Lon: -94.14

Elevation: 1278

Station Type: Davis/Vantage Pro

Latest ConditionsUpdated 7:40:05 PM CDT Wednesday, Aug 27, 2014
Currently Today's Max Today's Min Today's Average
Temperature 87.2°F30.7°C 94.5°F34.7°C 67.5°F19.7°C 80.5°F26.9°C
Dew Point 68.0°F20.0°C 73.8°F23.2°C 64.9°F18.3°C 68.7°F20.4°C
Winds 3.0 mph SSE4.8 kmh SSE 3.0 mph SSE4.8 kmh SSE - 0.5 mph 0.8 kmh
Wind Gusts -- -- - -
Humidity 53% 98% 39% 71%
Pressure 29.91 in1012.9 mb 30.05 in1017.6 mb 29.90 in1012.5 mb -
Hour Temp Dew Point Humidity Winds Wind Gusts Pressure Precip Precip Rate Daily Precip Total
07:40 PM 87.2°F30.7°C 68.0°F20.0°C 53% 3.0 mph SSE4.8 kmh SSE -- 29.91 in1012.9 mb 0.00 in0.0 mm 0.00 in/hr0.0 mm/hr 0.00 in0.0 mm
07:10 PM 88.5°F31.4°C 65.1°F18.4°C 46% Calm Calm -- 29.90 in1012.5 mb 0.00 in0.0 mm 0.00 in/hr0.0 mm/hr 0.00 in0.0 mm
06:40 PM 89.0°F31.7°C 67.4°F19.7°C 49% Calm Calm -- 29.90 in1012.5 mb 0.00 in0.0 mm 0.00 in/hr0.0 mm/hr 0.00 in0.0 mm
06:10 PM 87.0°F30.6°C 71.0°F21.7°C 59% Calm Calm -- 29.90 in1012.5 mb 0.00 in0.0 mm 0.00 in/hr0.0 mm/hr 0.00 in0.0 mm
05:40 PM 90.3°F32.4°C 69.2°F20.7°C 50% Calm Calm -- 29.90 in1012.5 mb 0.00 in0.0 mm 0.00 in/hr0.0 mm/hr 0.00 in0.0 mm
05:10 PM 93.5°F34.2°C 64.9°F18.3°C 39% 1.0 mph SE1.6 kmh SE -- 29.92 in1013.2 mb 0.00 in0.0 mm 0.00 in/hr0.0 mm/hr 0.00 in0.0 mm
04:40 PM 94.0°F34.4°C 66.0°F18.9°C 40% 2.0 mph SW3.2 kmh SW -- 29.92 in1013.2 mb 0.00 in0.0 mm 0.00 in/hr0.0 mm/hr 0.00 in0.0 mm
04:10 PM 93.9°F34.4°C 65.9°F18.8°C 40% 3.0 mph E4.8 kmh E -- 29.93 in1013.5 mb 0.00 in0.0 mm 0.00 in/hr0.0 mm/hr 0.00 in0.0 mm
03:40 PM 94.5°F34.7°C 67.2°F19.6°C 41% Calm Calm -- 29.94 in1013.9 mb 0.00 in0.0 mm 0.00 in/hr0.0 mm/hr 0.00 in0.0 mm
03:10 PM 94.0°F34.4°C 68.8°F20.4°C 44% Calm Calm -- 29.96 in1014.6 mb 0.00 in0.0 mm 0.00 in/hr0.0 mm/hr 0.00 in0.0 mm
02:40 PM 90.4°F32.4°C 69.8°F21.0°C 51% 2.0 mph ENE3.2 kmh ENE -- 29.98 in1015.2 mb 0.00 in0.0 mm 0.00 in/hr0.0 mm/hr 0.00 in0.0 mm
02:10 PM 92.2°F33.4°C 69.7°F20.9°C 48% 1.0 mph NW1.6 kmh NW -- 29.98 in1015.2 mb 0.00 in0.0 mm 0.00 in/hr0.0 mm/hr 0.00 in0.0 mm
01:40 PM 92.9°F33.8°C 70.3°F21.3°C 48% 2.0 mph NNW3.2 kmh NNW -- 29.99 in1015.6 mb 0.00 in0.0 mm 0.00 in/hr0.0 mm/hr 0.00 in0.0 mm
01:10 PM 92.3°F33.5°C 69.8°F21.0°C 48% 3.0 mph WSW4.8 kmh WSW -- 30.00 in1015.9 mb 0.00 in0.0 mm 0.00 in/hr0.0 mm/hr 0.00 in0.0 mm
12:40 PM 90.5°F32.5°C 71.1°F21.7°C 53% 3.0 mph N4.8 kmh N -- 30.01 in1016.3 mb 0.00 in0.0 mm 0.00 in/hr0.0 mm/hr 0.00 in0.0 mm
12:10 PM 88.3°F31.3°C 69.0°F20.6°C 53% Calm Calm -- 30.02 in1016.6 mb 0.00 in0.0 mm 0.00 in/hr0.0 mm/hr 0.00 in0.0 mm
11:40 AM 86.5°F30.3°C 71.5°F21.9°C 61% Calm Calm -- 30.04 in1017.3 mb 0.00 in0.0 mm 0.00 in/hr0.0 mm/hr 0.00 in0.0 mm
11:10 AM 86.2°F30.1°C 71.2°F21.8°C 61% 1.0 mph W1.6 kmh W -- 30.04 in1017.3 mb 0.00 in0.0 mm 0.00 in/hr0.0 mm/hr 0.00 in0.0 mm
10:40 AM 85.5°F29.7°C 71.9°F22.2°C 64% Calm Calm -- 30.05 in1017.6 mb 0.00 in0.0 mm 0.00 in/hr0.0 mm/hr 0.00 in0.0 mm
10:10 AM 84.7°F29.3°C 71.2°F21.8°C 64% Calm Calm -- 30.04 in1017.3 mb 0.00 in0.0 mm 0.00 in/hr0.0 mm/hr 0.00 in0.0 mm
09:40 AM 83.4°F28.6°C 73.8°F23.2°C 73% Calm Calm -- 30.04 in1017.3 mb 0.00 in0.0 mm 0.00 in/hr0.0 mm/hr 0.00 in0.0 mm
09:10 AM 80.4°F26.9°C 73.7°F23.2°C 80% Calm Calm -- 30.03 in1016.9 mb 0.00 in0.0 mm 0.00 in/hr0.0 mm/hr 0.00 in0.0 mm
08:40 AM 76.3°F24.6°C 73.2°F22.9°C 90% Calm Calm -- 30.03 in1016.9 mb 0.00 in0.0 mm 0.00 in/hr0.0 mm/hr 0.00 in0.0 mm
08:10 AM 71.3°F21.8°C 70.7°F21.5°C 98% Calm Calm -- 30.03 in1016.9 mb 0.00 in0.0 mm 0.00 in/hr0.0 mm/hr 0.00 in0.0 mm
07:40 AM 69.7°F20.9°C 69.1°F20.6°C 98% Calm Calm -- 30.02 in1016.6 mb 0.00 in0.0 mm 0.00 in/hr0.0 mm/hr 0.00 in0.0 mm
07:10 AM 67.9°F19.9°C 67.0°F19.4°C 97% Calm Calm -- 30.00 in1015.9 mb 0.00 in0.0 mm 0.00 in/hr0.0 mm/hr 0.00 in0.0 mm
06:40 AM 67.5°F19.7°C 66.3°F19.1°C 96% Calm Calm -- 30.00 in1015.9 mb 0.00 in0.0 mm 0.00 in/hr0.0 mm/hr 0.00 in0.0 mm
06:10 AM 67.8°F19.9°C 66.6°F19.2°C 96% Calm Calm -- 29.99 in1015.6 mb 0.00 in0.0 mm 0.00 in/hr0.0 mm/hr 0.00 in0.0 mm
05:40 AM 68.0°F20.0°C 66.8°F19.3°C 96% Calm Calm -- 29.99 in1015.6 mb 0.00 in0.0 mm 0.00 in/hr0.0 mm/hr 0.00 in0.0 mm
05:10 AM 68.5°F20.3°C 67.3°F19.6°C 96% Calm Calm -- 29.99 in1015.6 mb 0.00 in0.0 mm 0.00 in/hr0.0 mm/hr 0.00 in0.0 mm
04:40 AM 69.0°F20.6°C 67.8°F19.9°C 96% Calm Calm -- 30.00 in1015.9 mb 0.00 in0.0 mm 0.00 in/hr0.0 mm/hr 0.00 in0.0 mm
04:10 AM 68.8°F20.4°C 67.3°F19.6°C 95% Calm Calm -- 30.00 in1015.9 mb 0.00 in0.0 mm 0.00 in/hr0.0 mm/hr 0.00 in0.0 mm
03:40 AM 68.6°F20.3°C 67.1°F19.5°C 95% Calm Calm -- 30.00 in1015.9 mb 0.00 in0.0 mm 0.00 in/hr0.0 mm/hr 0.00 in0.0 mm
03:10 AM 68.7°F20.4°C 66.9°F19.4°C 94% Calm Calm -- 30.00 in1015.9 mb 0.00 in0.0 mm 0.00 in/hr0.0 mm/hr 0.00 in0.0 mm
02:40 AM 69.0°F20.6°C 66.9°F19.4°C 93% Calm Calm -- 29.99 in1015.6 mb 0.00 in0.0 mm 0.00 in/hr0.0 mm/hr 0.00 in0.0 mm
02:10 AM 69.5°F20.8°C 67.1°F19.5°C 92% Calm Calm -- 30.00 in1015.9 mb 0.00 in0.0 mm 0.00 in/hr0.0 mm/hr 0.00 in0.0 mm
01:40 AM 70.0°F21.1°C 67.3°F19.6°C 91% Calm Calm -- 29.99 in1015.6 mb 0.00 in0.0 mm 0.00 in/hr0.0 mm/hr 0.00 in0.0 mm
01:10 AM 70.5°F21.4°C 67.1°F19.5°C 89% Calm Calm -- 29.99 in1015.6 mb 0.00 in0.0 mm 0.00 in/hr0.0 mm/hr 0.00 in0.0 mm
12:40 AM 71.0°F21.7°C 67.6°F19.8°C 89% Calm Calm -- 29.99 in1015.6 mb 0.00 in0.0 mm 0.00 in/hr0.0 mm/hr 0.00 in0.0 mm
12:10 AM 72.1°F22.3°C 67.7°F19.8°C 86% Calm Calm -- 29.98 in1015.2 mb 0.00 in0.0 mm 0.00 in/hr0.0 mm/hr 0.00 in0.0 mm